sensor_id;sensor_type;location;lat;lon;timestamp;pressure;altitude;pressure_sealevel;temperature;humidity
63700;BME280;49845;47.130;142.766;2022-11-15T00:01:19;100201.16;;;-4.70;85.16
63700;BME280;49845;47.130;142.766;2022-11-15T00:03:57;100195.34;;;-4.47;84.68
63700;BME280;49845;47.130;142.766;2022-11-15T00:06:40;100189.28;;;-4.29;84.65
63700;BME280;49845;47.130;142.766;2022-11-15T00:09:28;100186.94;;;-4.25;83.99
63700;BME280;49845;47.130;142.766;2022-11-15T00:12:17;100187.13;;;-4.20;83.46
63700;BME280;49845;47.130;142.766;2022-11-15T00:15:14;100195.41;;;-4.05;83.80
63700;BME280;49845;47.130;142.766;2022-11-15T00:17:57;100174.13;;;-3.84;83.61
63700;BME280;49845;47.130;142.766;2022-11-15T00:20:45;100171.97;;;-3.53;83.86
63700;BME280;49845;47.130;142.766;2022-11-15T00:23:36;100169.09;;;-3.39;82.29
63700;BME280;49845;47.130;142.766;2022-11-15T00:26:14;100166.38;;;-3.20;81.42
63700;BME280;49845;47.130;142.766;2022-11-15T00:28:55;100161.25;;;-2.97;81.63
63700;BME280;49845;47.130;142.766;2022-11-15T00:31:34;100163.91;;;-2.72;81.97
63700;BME280;49845;47.130;142.766;2022-11-15T00:34:28;100165.22;;;-2.57;81.12
63700;BME280;49845;47.130;142.766;2022-11-15T00:37:14;100174.56;;;-2.59;80.66
63700;BME280;49845;47.130;142.766;2022-11-15T00:40:08;100177.50;;;-2.47;80.83
63700;BME280;49845;47.130;142.766;2022-11-15T00:43:12;100183.59;;;-2.20;80.35
63700;BME280;49845;47.130;142.766;2022-11-15T00:45:59;100190.25;;;-1.99;79.88
63700;BME280;49845;47.130;142.766;2022-11-15T00:48:45;100136.47;;;-1.99;79.69
63700;BME280;49845;47.130;142.766;2022-11-15T00:52:05;100177.06;;;-1.57;78.83
63700;BME280;49845;47.130;142.766;2022-11-15T00:54:54;100179.44;;;-1.63;77.40
63700;BME280;49845;47.130;142.766;2022-11-15T00:57:37;100171.84;;;-1.60;76.28
63700;BME280;49845;47.130;142.766;2022-11-15T01:00:44;100180.81;;;-1.46;76.19
63700;BME280;49845;47.130;142.766;2022-11-15T01:03:20;100174.22;;;-1.38;76.30
63700;BME280;49845;47.130;142.766;2022-11-15T01:06:12;100166.66;;;-1.35;74.87
63700;BME280;49845;47.130;142.766;2022-11-15T01:08:53;100167.00;;;-1.51;74.20
63700;BME280;49845;47.130;142.766;2022-11-15T01:11:37;100160.16;;;-1.52;73.85
63700;BME280;49845;47.130;142.766;2022-11-15T01:14:19;100165.06;;;-1.58;73.93
63700;BME280;49845;47.130;142.766;2022-11-15T01:17:06;100153.34;;;-1.50;74.63
63700;BME280;49845;47.130;142.766;2022-11-15T01:19:57;100146.78;;;-1.42;73.96
63700;BME280;49845;47.130;142.766;2022-11-15T01:22:35;100134.38;;;-1.28;74.25
63700;BME280;49845;47.130;142.766;2022-11-15T01:25:21;100091.59;;;-0.99;74.95
63700;BME280;49845;47.130;142.766;2022-11-15T01:28:07;100136.44;;;-0.53;74.30
63700;BME280;49845;47.130;142.766;2022-11-15T01:31:02;100115.69;;;-0.62;72.34
63700;BME280;49845;47.130;142.766;2022-11-15T01:33:56;100118.00;;;-0.71;71.89
63700;BME280;49845;47.130;142.766;2022-11-15T01:36:44;100127.84;;;-0.87;71.53
63700;BME280;49845;47.130;142.766;2022-11-15T01:39:22;100123.22;;;-1.00;71.83
63700;BME280;49845;47.130;142.766;2022-11-15T01:42:05;100121.94;;;-1.14;71.75
63700;BME280;49845;47.130;142.766;2022-11-15T01:45:16;100114.03;;;-0.92;72.61
63700;BME280;49845;47.130;142.766;2022-11-15T01:47:58;100111.22;;;-0.69;72.29
63700;BME280;49845;47.130;142.766;2022-11-15T01:50:52;100102.59;;;-0.38;71.76
63700;BME280;49845;47.130;142.766;2022-11-15T01:53:39;100077.41;;;-0.18;71.75
63700;BME280;49845;47.130;142.766;2022-11-15T01:56:38;100095.31;;;0.53;71.83
63700;BME280;49845;47.130;142.766;2022-11-15T01:59:28;100078.72;;;0.81;69.73
63700;BME280;49845;47.130;142.766;2022-11-15T02:02:22;100086.03;;;1.04;68.65
63700;BME280;49845;47.130;142.766;2022-11-15T02:05:17;100007.28;;;0.65;67.93
63700;BME280;49845;47.130;142.766;2022-11-15T02:08:15;100081.31;;;1.25;67.56
63700;BME280;49845;47.130;142.766;2022-11-15T02:10:59;100074.75;;;1.43;68.16
63700;BME280;49845;47.130;142.766;2022-11-15T02:13:46;100074.88;;;1.52;67.09
63700;BME280;49845;47.130;142.766;2022-11-15T02:16:29;100065.69;;;1.65;65.91
63700;BME280;49845;47.130;142.766;2022-11-15T02:19:59;100062.13;;;1.58;65.80
63700;BME280;49845;47.130;142.766;2022-11-15T02:23:20;100063.25;;;1.24;65.23
63700;BME280;49845;47.130;142.766;2022-11-15T02:33:41;100058.50;;;1.47;65.30
63700;BME280;49845;47.130;142.766;2022-11-15T02:36:29;100056.66;;;1.38;63.68
63700;BME280;49845;47.130;142.766;2022-11-15T02:39:26;100050.50;;;1.32;63.88
63700;BME280;49845;47.130;142.766;2022-11-15T02:42:14;100040.84;;;1.20;63.02
63700;BME280;49845;47.130;142.766;2022-11-15T02:45:12;100046.75;;;1.14;63.34
63700;BME280;49845;47.130;142.766;2022-11-15T02:48:04;100041.66;;;1.17;62.97
63700;BME280;49845;47.130;142.766;2022-11-15T02:50:50;100043.72;;;1.37;63.10
63700;BME280;49845;47.130;142.766;2022-11-15T02:53:35;100038.91;;;1.55;64.00
63700;BME280;49845;47.130;142.766;2022-11-15T02:56:19;100046.44;;;1.44;61.44
63700;BME280;49845;47.130;142.766;2022-11-15T02:59:16;100032.69;;;1.42;61.98
63700;BME280;49845;47.130;142.766;2022-11-15T03:02:23;100038.78;;;1.49;63.50
63700;BME280;49845;47.130;142.766;2022-11-15T03:05:13;100030.94;;;1.41;62.80
63700;BME280;49845;47.130;142.766;2022-11-15T03:08:10;100026.53;;;1.33;63.54
63700;BME280;49845;47.130;142.766;2022-11-15T03:10:55;100023.66;;;1.16;63.50
63700;BME280;49845;47.130;142.766;2022-11-15T03:13:48;100003.88;;;1.13;64.25
63700;BME280;49845;47.130;142.766;2022-11-15T03:16:42;100007.59;;;1.31;62.90
63700;BME280;49845;47.130;142.766;2022-11-15T03:19:30;99970.75;;;1.35;64.73
63700;BME280;49845;47.130;142.766;2022-11-15T03:22:36;99983.94;;;1.53;64.03
63700;BME280;49845;47.130;142.766;2022-11-15T03:25:30;100007.91;;;1.49;62.25
63700;BME280;49845;47.130;142.766;2022-11-15T03:28:22;100005.13;;;1.37;63.07
63700;BME280;49845;47.130;142.766;2022-11-15T03:31:07;100007.53;;;1.26;63.35
63700;BME280;49845;47.130;142.766;2022-11-15T03:34:11;99823.84;;;0.16;64.06
63700;BME280;49845;47.130;142.766;2022-11-15T03:37:15;100004.78;;;1.15;63.85
63700;BME280;49845;47.130;142.766;2022-11-15T03:40:25;99995.25;;;1.11;63.08
63700;BME280;49845;47.130;142.766;2022-11-15T03:43:22;100000.66;;;1.26;64.08
63700;BME280;49845;47.130;142.766;2022-11-15T03:46:06;99992.94;;;1.26;63.25
63700;BME280;49845;47.130;142.766;2022-11-15T03:49:03;99981.75;;;1.24;64.69
63700;BME280;49845;47.130;142.766;2022-11-15T03:52:00;99983.53;;;1.28;62.80
63700;BME280;49845;47.130;142.766;2022-11-15T03:54:52;99995.63;;;1.33;61.20
63700;BME280;49845;47.130;142.766;2022-11-15T03:57:28;99986.16;;;1.32;63.54
63700;BME280;49845;47.130;142.766;2022-11-15T04:00:20;99995.63;;;1.33;62.72
63700;BME280;49845;47.130;142.766;2022-11-15T04:03:17;99993.78;;;1.25;61.52
63700;BME280;49845;47.130;142.766;2022-11-15T04:05:55;99994.59;;;1.23;60.76
63700;BME280;49845;47.130;142.766;2022-11-15T04:08:33;99988.31;;;1.07;59.08
63700;BME280;49845;47.130;142.766;2022-11-15T04:11:23;99977.75;;;0.92;59.76
63700;BME280;49845;47.130;142.766;2022-11-15T04:13:59;99988.22;;;1.01;60.79
63700;BME280;49845;47.130;142.766;2022-11-15T04:16:37;99988.03;;;0.92;60.70
63700;BME280;49845;47.130;142.766;2022-11-15T04:19:23;99973.00;;;0.66;61.22
63700;BME280;49845;47.130;142.766;2022-11-15T04:22:14;99972.22;;;0.70;61.15
63700;BME280;49845;47.130;142.766;2022-11-15T04:25:12;99989.47;;;0.77;60.83
63700;BME280;49845;47.130;142.766;2022-11-15T04:28:01;99985.00;;;0.67;61.65
63700;BME280;49845;47.130;142.766;2022-11-15T04:30:37;99983.97;;;0.57;61.58
63700;BME280;49845;47.130;142.766;2022-11-15T04:33:23;99977.88;;;0.52;62.13
63700;BME280;49845;47.130;142.766;2022-11-15T04:36:26;99988.16;;;0.52;62.51
63700;BME280;49845;47.130;142.766;2022-11-15T04:39:22;99983.91;;;0.53;63.54
63700;BME280;49845;47.130;142.766;2022-11-15T04:42:03;99983.13;;;0.58;63.89
63700;BME280;49845;47.130;142.766;2022-11-15T04:44:39;99990.94;;;0.63;64.15
63700;BME280;49845;47.130;142.766;2022-11-15T04:47:25;99990.94;;;0.63;63.69
63700;BME280;49845;47.130;142.766;2022-11-15T04:50:18;99984.00;;;0.59;63.08
63700;BME280;49845;47.130;142.766;2022-11-15T04:52:57;99978.81;;;0.56;63.44
63700;BME280;49845;47.130;142.766;2022-11-15T04:55:44;99978.66;;;0.50;63.24
63700;BME280;49845;47.130;142.766;2022-11-15T04:58:40;99971.69;;;0.42;63.47
63700;BME280;49845;47.130;142.766;2022-11-15T05:01:28;99980.13;;;0.35;63.25
63700;BME280;49845;47.130;142.766;2022-11-15T05:04:17;99957.56;;;0.22;64.00
63700;BME280;49845;47.130;142.766;2022-11-15T05:07:07;99979.88;;;0.23;64.24
63700;BME280;49845;47.130;142.766;2022-11-15T05:10:14;99985.00;;;0.23;64.61
63700;BME280;49845;47.130;142.766;2022-11-15T05:12:59;99978.00;;;0.17;64.94
63700;BME280;49845;47.130;142.766;2022-11-15T05:15:42;99981.28;;;0.09;66.63
63700;BME280;49845;47.130;142.766;2022-11-15T05:18:19;99989.47;;;-0.08;68.84
63700;BME280;49845;47.130;142.766;2022-11-15T05:21:05;99978.72;;;-0.29;70.66
63700;BME280;49845;47.130;142.766;2022-11-15T05:24:18;99985.91;;;-0.51;72.44
63700;BME280;49845;47.130;142.766;2022-11-15T05:27:05;99989.91;;;-0.63;74.09
63700;BME280;49845;47.130;142.766;2022-11-15T05:29:49;99979.44;;;-0.71;74.90
63700;BME280;49845;47.130;142.766;2022-11-15T05:32:28;99967.06;;;-0.88;76.02
63700;BME280;49845;47.130;142.766;2022-11-15T05:35:22;99986.00;;;-0.82;77.11
63700;BME280;49845;47.130;142.766;2022-11-15T05:38:40;99989.34;;;-0.87;78.92
63700;BME280;49845;47.130;142.766;2022-11-15T05:41:32;99991.91;;;-0.85;79.83
63700;BME280;49845;47.130;142.766;2022-11-15T05:44:31;99993.69;;;-0.82;80.17
63700;BME280;49845;47.130;142.766;2022-11-15T05:47:19;99986.16;;;-0.76;80.68
63700;BME280;49845;47.130;142.766;2022-11-15T05:50:21;100001.69;;;-0.70;81.26
63700;BME280;49845;47.130;142.766;2022-11-15T05:53:11;99990.56;;;-0.72;81.64
63700;BME280;49845;47.130;142.766;2022-11-15T05:56:02;99998.09;;;-0.78;82.14
63700;BME280;49845;47.130;142.766;2022-11-15T05:58:41;99995.44;;;-0.81;82.41
63700;BME280;49845;47.130;142.766;2022-11-15T06:01:34;100002.81;;;-0.94;82.46
63700;BME280;49845;47.130;142.766;2022-11-15T06:04:13;99999.09;;;-1.05;82.83
63700;BME280;49845;47.130;142.766;2022-11-15T06:06:51;100009.06;;;-1.17;83.26
63700;BME280;49845;47.130;142.766;2022-11-15T06:09:45;100000.19;;;-1.28;83.63
63700;BME280;49845;47.130;142.766;2022-11-15T06:12:42;100014.38;;;-1.41;83.53
63700;BME280;49845;47.130;142.766;2022-11-15T06:15:56;100019.75;;;-1.62;83.99
63700;BME280;49845;47.130;142.766;2022-11-15T06:18:49;100025.22;;;-1.80;84.23
63700;BME280;49845;47.130;142.766;2022-11-15T06:21:23;100020.63;;;-1.92;84.56
63700;BME280;49845;47.130;142.766;2022-11-15T06:24:03;100025.25;;;-2.07;85.19
63700;BME280;49845;47.130;142.766;2022-11-15T06:26:47;100021.59;;;-2.15;85.97
63700;BME280;49845;47.130;142.766;2022-11-15T06:29:26;100029.03;;;-2.23;86.02
63700;BME280;49845;47.130;142.766;2022-11-15T06:32:14;100018.03;;;-2.48;86.34
63700;BME280;49845;47.130;142.766;2022-11-15T06:35:01;100026.53;;;-2.49;87.29
63700;BME280;49845;47.130;142.766;2022-11-15T06:37:40;100028.53;;;-2.66;87.86
63700;BME280;49845;47.130;142.766;2022-11-15T06:40:24;100029.06;;;-2.76;88.21
63700;BME280;49845;47.130;142.766;2022-11-15T06:43:03;100030.50;;;-2.84;88.52
63700;BME280;49845;47.130;142.766;2022-11-15T06:45:44;100031.28;;;-2.85;89.09
63700;BME280;49845;47.130;142.766;2022-11-15T06:48:28;100036.31;;;-2.88;90.12
63700;BME280;49845;47.130;142.766;2022-11-15T06:51:14;100031.13;;;-2.90;90.76
63700;BME280;49845;47.130;142.766;2022-11-15T06:54:07;100031.09;;;-2.91;91.14
63700;BME280;49845;47.130;142.766;2022-11-15T06:56:46;100028.28;;;-2.99;91.06
63700;BME280;49845;47.130;142.766;2022-11-15T06:59:33;100032.81;;;-2.90;91.29
63700;BME280;49845;47.130;142.766;2022-11-15T07:02:15;100032.22;;;-2.83;91.50
63700;BME280;49845;47.130;142.766;2022-11-15T07:04:58;100031.41;;;-2.82;91.60
63700;BME280;49845;47.130;142.766;2022-11-15T07:07:45;100037.66;;;-2.99;90.77
63700;BME280;49845;47.130;142.766;2022-11-15T07:10:32;100030.44;;;-3.10;91.01
63700;BME280;49845;47.130;142.766;2022-11-15T07:13:16;99986.78;;;-3.41;91.48
63700;BME280;49845;47.130;142.766;2022-11-15T07:16:12;100038.84;;;-3.14;91.61
63700;BME280;49845;47.130;142.766;2022-11-15T07:19:04;100037.53;;;-3.27;91.66
63700;BME280;49845;47.130;142.766;2022-11-15T07:22:00;100043.28;;;-3.32;92.06
63700;BME280;49845;47.130;142.766;2022-11-15T07:24:56;100049.13;;;-3.36;92.36
63700;BME280;49845;47.130;142.766;2022-11-15T07:27:55;100044.72;;;-3.40;92.51
63700;BME280;49845;47.130;142.766;2022-11-15T07:30:46;100051.44;;;-3.42;92.79
63700;BME280;49845;47.130;142.766;2022-11-15T07:33:50;100051.44;;;-3.42;93.39
63700;BME280;49845;47.130;142.766;2022-11-15T07:36:40;100058.41;;;-3.38;93.68
63700;BME280;49845;47.130;142.766;2022-11-15T07:43:05;100070.34;;;-3.37;94.43
63700;BME280;49845;47.130;142.766;2022-11-15T07:45:51;100053.22;;;-3.40;94.39
63700;BME280;49845;47.130;142.766;2022-11-15T07:48:38;100060.69;;;-3.46;94.24
63700;BME280;49845;47.130;142.766;2022-11-15T07:51:16;100064.03;;;-3.47;94.37
63700;BME280;49845;47.130;142.766;2022-11-15T07:53:54;100063.19;;;-3.48;94.40
63700;BME280;49845;47.130;142.766;2022-11-15T07:56:36;100068.38;;;-3.44;94.75
63700;BME280;49845;47.130;142.766;2022-11-15T07:59:27;100065.97;;;-3.41;94.95
63700;BME280;49845;47.130;142.766;2022-11-15T08:02:27;100060.69;;;-3.46;95.01
63700;BME280;49845;47.130;142.766;2022-11-15T08:05:17;100066.06;;;-3.38;95.21
63700;BME280;49845;47.130;142.766;2022-11-15T08:08:02;100068.72;;;-3.35;95.25
63700;BME280;49845;47.130;142.766;2022-11-15T08:10:41;100065.31;;;-3.36;95.41
63700;BME280;49845;47.130;142.766;2022-11-15T08:13:23;100063.63;;;-3.35;95.65
63700;BME280;49845;47.130;142.766;2022-11-15T08:16:12;100060.03;;;-3.40;95.30
63700;BME280;49845;47.130;142.766;2022-11-15T08:19:00;100065.13;;;-3.40;95.49
63700;BME280;49845;47.130;142.766;2022-11-15T08:21:40;100068.53;;;-3.41;95.58
63700;BME280;49845;47.130;142.766;2022-11-15T08:24:35;100019.41;;;-3.81;95.49
63700;BME280;49845;47.130;142.766;2022-11-15T08:27:47;100073.19;;;-3.54;95.43
63700;BME280;49845;47.130;142.766;2022-11-15T08:30:28;100074.44;;;-3.65;95.21
63700;BME280;49845;47.130;142.766;2022-11-15T08:33:35;100065.75;;;-3.70;95.16
63700;BME280;49845;47.130;142.766;2022-11-15T08:36:17;100080.78;;;-3.55;95.49
63700;BME280;49845;47.130;142.766;2022-11-15T08:38:52;100081.13;;;-3.46;95.54
63700;BME280;49845;47.130;142.766;2022-11-15T08:41:45;100081.53;;;-3.58;94.73
63700;BME280;49845;47.130;142.766;2022-11-15T08:44:44;100063.56;;;-3.83;94.08
63700;BME280;49845;47.130;142.766;2022-11-15T08:47:26;100073.75;;;-3.83;94.21
63700;BME280;49845;47.130;142.766;2022-11-15T08:50:07;100078.63;;;-3.90;93.64
63700;BME280;49845;47.130;142.766;2022-11-15T08:52:57;100076.47;;;-4.01;93.77
63700;BME280;49845;47.130;142.766;2022-11-15T08:55:52;100074.91;;;-3.98;94.25
63700;BME280;49845;47.130;142.766;2022-11-15T08:58:40;100055.25;;;-4.00;94.15
63700;BME280;49845;47.130;142.766;2022-11-15T09:01:19;100080.13;;;-3.95;94.42
63700;BME280;49845;47.130;142.766;2022-11-15T09:04:13;100081.78;;;-3.97;93.72
63700;BME280;49845;47.130;142.766;2022-11-15T09:07:16;100079.78;;;-4.04;93.82
63700;BME280;49845;47.130;142.766;2022-11-15T09:10:02;100089.84;;;-4.07;93.63
63700;BME280;49845;47.130;142.766;2022-11-15T09:12:56;100086.38;;;-4.09;93.32
63700;BME280;49845;47.130;142.766;2022-11-15T09:15:35;100081.97;;;-4.13;92.97
63700;BME280;49845;47.130;142.766;2022-11-15T09:18:23;100081.59;;;-4.22;92.93
63700;BME280;49845;47.130;142.766;2022-11-15T09:21:07;100090.06;;;-4.23;92.67
63700;BME280;49845;47.130;142.766;2022-11-15T09:23:54;100087.97;;;-4.34;92.24
63700;BME280;49845;47.130;142.766;2022-11-15T09:26:49;100069.09;;;-4.58;91.89
63700;BME280;49845;47.130;142.766;2022-11-15T09:29:36;100091.00;;;-4.63;91.81
63700;BME280;49845;47.130;142.766;2022-11-15T09:32:44;100088.59;;;-4.80;92.16
63700;BME280;49845;47.130;142.766;2022-11-15T09:35:25;100044.41;;;-5.21;92.74
63700;BME280;49845;47.130;142.766;2022-11-15T09:38:12;100097.88;;;-5.01;92.63
63700;BME280;49845;47.130;142.766;2022-11-15T09:51:14;100103.38;;;-5.31;93.96
63700;BME280;49845;47.130;142.766;2022-11-15T09:54:09;100109.69;;;-5.23;94.50
63700;BME280;49845;47.130;142.766;2022-11-15T09:57:20;100110.63;;;-5.21;94.76
63700;BME280;49845;47.130;142.766;2022-11-15T10:00:21;100119.09;;;-5.22;94.91
63700;BME280;49845;47.130;142.766;2022-11-15T10:03:30;100115.72;;;-5.21;94.50
63700;BME280;49845;47.130;142.766;2022-11-15T10:06:16;100054.56;;;-5.79;94.22
63700;BME280;49845;47.130;142.766;2022-11-15T10:09:03;100113.81;;;-5.25;94.46
63700;BME280;49845;47.130;142.766;2022-11-15T10:12:02;100102.69;;;-5.27;94.81
63700;BME280;49845;47.130;142.766;2022-11-15T10:15:02;100121.06;;;-5.14;94.33
63700;BME280;49845;47.130;142.766;2022-11-15T10:18:00;100124.00;;;-5.25;93.98
63700;BME280;49845;47.130;142.766;2022-11-15T10:23:56;100087.34;;;-5.85;93.03
63700;BME280;49845;47.130;142.766;2022-11-15T10:27:12;100126.72;;;-5.59;93.60
63700;BME280;49845;47.130;142.766;2022-11-15T10:30:19;100123.03;;;-5.66;93.78
63700;BME280;49845;47.130;142.766;2022-11-15T10:32:57;100135.44;;;-5.72;93.38
63700;BME280;49845;47.130;142.766;2022-11-15T10:39:04;100139.44;;;-5.96;92.62
63700;BME280;49845;47.130;142.766;2022-11-15T10:41:58;100137.69;;;-5.97;93.09
63700;BME280;49845;47.130;142.766;2022-11-15T10:45:10;100132.00;;;-6.10;93.21
63700;BME280;49845;47.130;142.766;2022-11-15T10:48:30;100138.41;;;-6.18;93.32
63700;BME280;49845;47.130;142.766;2022-11-15T10:57:48;100132.44;;;-6.36;92.88
63700;BME280;49845;47.130;142.766;2022-11-15T11:00:44;100024.25;;;-7.00;92.91
63700;BME280;49845;47.130;142.766;2022-11-15T11:03:45;100118.19;;;-6.67;92.23
63700;BME280;49845;47.130;142.766;2022-11-15T11:06:31;100140.91;;;-6.70;92.31
63700;BME280;49845;47.130;142.766;2022-11-15T11:09:40;100139.19;;;-6.87;92.33
63700;BME280;49845;47.130;142.766;2022-11-15T11:13:36;100151.50;;;-6.95;92.44
63700;BME280;49845;47.130;142.766;2022-11-15T11:16:45;100096.81;;;-7.38;92.74
63700;BME280;49845;47.130;142.766;2022-11-15T11:19:58;100144.09;;;-7.07;93.30
63700;BME280;49845;47.130;142.766;2022-11-15T11:22:38;100147.75;;;-7.02;93.54
63700;BME280;49845;47.130;142.766;2022-11-15T11:28:52;100148.81;;;-6.98;93.90
63700;BME280;49845;47.130;142.766;2022-11-15T11:31:46;100144.16;;;-6.89;94.24
63700;BME280;49845;47.130;142.766;2022-11-15T11:35:10;100160.31;;;-6.88;94.04
63700;BME280;49845;47.130;142.766;2022-11-15T11:38:00;100138.53;;;-7.00;93.46
63700;BME280;49845;47.130;142.766;2022-11-15T11:41:05;100138.56;;;-7.16;92.96
63700;BME280;49845;47.130;142.766;2022-11-15T11:44:18;100146.25;;;-7.14;93.18
63700;BME280;49845;47.130;142.766;2022-11-15T11:47:14;100102.66;;;-7.55;92.78
63700;BME280;49845;47.130;142.766;2022-11-15T11:49:56;100152.97;;;-7.31;93.05
63700;BME280;49845;47.130;142.766;2022-11-15T11:52:55;100151.06;;;-7.35;93.42
63700;BME280;49845;47.130;142.766;2022-11-15T11:55:39;100144.22;;;-7.37;94.01
63700;BME280;49845;47.130;142.766;2022-11-15T11:58:25;100137.13;;;-7.44;94.39
63700;BME280;49845;47.130;142.766;2022-11-15T12:01:29;100146.00;;;-7.35;94.77
63700;BME280;49845;47.130;142.766;2022-11-15T12:05:01;100152.25;;;-7.29;95.41
63700;BME280;49845;47.130;142.766;2022-11-15T12:07:55;100157.13;;;-7.17;96.05
63700;BME280;49845;47.130;142.766;2022-11-15T12:10:34;100150.94;;;-7.06;96.36
63700;BME280;49845;47.130;142.766;2022-11-15T12:13:45;100140.78;;;-7.06;96.31
63700;BME280;49845;47.130;142.766;2022-11-15T12:16:40;100152.50;;;-6.75;96.74
63700;BME280;49845;47.130;142.766;2022-11-15T12:19:43;100159.03;;;-6.80;95.97
63700;BME280;49845;47.130;142.766;2022-11-15T12:22:27;100011.59;;;-7.82;94.54
63700;BME280;49845;47.130;142.766;2022-11-15T12:25:28;100166.97;;;-7.23;92.94
63700;BME280;49845;47.130;142.766;2022-11-15T12:28:15;100156.63;;;-7.43;91.65
63700;BME280;49845;47.130;142.766;2022-11-15T12:31:15;100160.41;;;-7.51;91.02
63700;BME280;49845;47.130;142.766;2022-11-15T12:34:35;100159.56;;;-7.66;89.50
63700;BME280;49845;47.130;142.766;2022-11-15T12:37:55;100158.03;;;-7.94;88.53
63700;BME280;49845;47.130;142.766;2022-11-15T12:43:52;100146.13;;;-8.26;87.32
63700;BME280;49845;47.130;142.766;2022-11-15T12:47:03;100164.91;;;-8.22;87.42
63700;BME280;49845;47.130;142.766;2022-11-15T12:49:56;100165.59;;;-8.25;87.56
63700;BME280;49845;47.130;142.766;2022-11-15T12:56:23;100129.63;;;-8.49;88.34
63700;BME280;49845;47.130;142.766;2022-11-15T12:59:48;100160.69;;;-8.22;89.55
63700;BME280;49845;47.130;142.766;2022-11-15T13:02:44;100155.63;;;-8.07;90.27
63700;BME280;49845;47.130;142.766;2022-11-15T13:06:07;100154.56;;;-7.81;91.50
63700;BME280;49845;47.130;142.766;2022-11-15T13:08:51;100127.00;;;-7.90;90.98
63700;BME280;49845;47.130;142.766;2022-11-15T13:11:51;100146.19;;;-8.10;89.77
63700;BME280;49845;47.130;142.766;2022-11-15T13:14:47;100155.63;;;-8.07;89.85
63700;BME280;49845;47.130;142.766;2022-11-15T13:17:41;100143.91;;;-8.05;90.33
63700;BME280;49845;47.130;142.766;2022-11-15T13:20:28;100107.41;;;-8.23;89.89
63700;BME280;49845;47.130;142.766;2022-11-15T13:23:19;100149.31;;;-7.99;89.80
63700;BME280;49845;47.130;142.766;2022-11-15T13:26:12;100135.41;;;-7.91;89.82
63700;BME280;49845;47.130;142.766;2022-11-15T13:29:00;100159.97;;;-7.90;89.57
63700;BME280;49845;47.130;142.766;2022-11-15T13:31:58;100149.38;;;-7.83;90.16
63700;BME280;49845;47.130;142.766;2022-11-15T13:34:52;100130.91;;;-7.80;90.35
63700;BME280;49845;47.130;142.766;2022-11-15T13:37:48;100147.66;;;-7.67;90.18
63700;BME280;49845;47.130;142.766;2022-11-15T13:40:34;100128.94;;;-7.69;90.00
63700;BME280;49845;47.130;142.766;2022-11-15T13:43:28;99989.31;;;-8.51;90.00
63700;BME280;49845;47.130;142.766;2022-11-15T13:46:13;100151.38;;;-7.46;89.78
63700;BME280;49845;47.130;142.766;2022-11-15T13:49:03;100137.63;;;-7.49;89.34
63700;BME280;49845;47.130;142.766;2022-11-15T13:52:00;100155.03;;;-7.41;89.20
63700;BME280;49845;47.130;142.766;2022-11-15T13:54:39;100144.84;;;-7.57;88.08
63700;BME280;49845;47.130;142.766;2022-11-15T13:57:38;100151.34;;;-7.62;87.82
63700;BME280;49845;47.130;142.766;2022-11-15T14:00:35;100150.81;;;-7.71;87.22
63700;BME280;49845;47.130;142.766;2022-11-15T14:03:19;100084.47;;;-8.10;86.92
63700;BME280;49845;47.130;142.766;2022-11-15T14:06:27;100133.34;;;-7.82;86.90
63700;BME280;49845;47.130;142.766;2022-11-15T14:09:34;100154.72;;;-7.93;87.06
63700;BME280;49845;47.130;142.766;2022-11-15T14:12:39;100134.66;;;-8.19;87.13
63700;BME280;49845;47.130;142.766;2022-11-15T14:15:39;100154.41;;;-8.29;87.11
63700;BME280;49845;47.130;142.766;2022-11-15T14:18:43;100146.38;;;-8.51;87.08
63700;BME280;49845;47.130;142.766;2022-11-15T14:22:10;100151.44;;;-8.81;86.75
63700;BME280;49845;47.130;142.766;2022-11-15T14:25:12;100156.69;;;-8.78;87.45
63700;BME280;49845;47.130;142.766;2022-11-15T14:28:29;100145.66;;;-8.93;87.49
63700;BME280;49845;47.130;142.766;2022-11-15T14:31:16;100150.50;;;-8.96;88.15
63700;BME280;49845;47.130;142.766;2022-11-15T14:33:58;100137.69;;;-8.99;88.49
63700;BME280;49845;47.130;142.766;2022-11-15T14:36:46;100160.13;;;-8.62;89.56
63700;BME280;49845;47.130;142.766;2022-11-15T14:39:29;100168.41;;;-8.35;90.45
63700;BME280;49845;47.130;142.766;2022-11-15T14:42:17;100160.00;;;-8.34;90.24
63700;BME280;49845;47.130;142.766;2022-11-15T14:44:59;100163.66;;;-8.14;89.88
63700;BME280;49845;47.130;142.766;2022-11-15T14:47:35;100169.25;;;-8.05;89.44
63700;BME280;49845;47.130;142.766;2022-11-15T14:50:12;100013.31;;;-9.05;87.98
63700;BME280;49845;47.130;142.766;2022-11-15T14:52:58;100167.69;;;-8.33;87.44
63700;BME280;49845;47.130;142.766;2022-11-15T14:55:42;100170.16;;;-8.49;86.67
63700;BME280;49845;47.130;142.766;2022-11-15T14:58:34;100153.72;;;-8.71;86.32
63700;BME280;49845;47.130;142.766;2022-11-15T15:01:26;100172.72;;;-8.92;85.41
63700;BME280;49845;47.130;142.766;2022-11-15T15:04:08;100173.19;;;-9.13;85.41
63700;BME280;49845;47.130;142.766;2022-11-15T15:06:58;100177.84;;;-9.19;87.02
63700;BME280;49845;47.130;142.766;2022-11-15T15:09:44;100153.00;;;-9.39;87.30
63700;BME280;49845;47.130;142.766;2022-11-15T15:12:56;100178.59;;;-9.35;88.34
63700;BME280;49845;47.130;142.766;2022-11-15T15:15:43;100177.53;;;-9.38;88.57
63700;BME280;49845;47.130;142.766;2022-11-15T15:18:36;100173.25;;;-9.39;88.82
63700;BME280;49845;47.130;142.766;2022-11-15T15:21:25;100168.75;;;-9.30;89.76
63700;BME280;49845;47.130;142.766;2022-11-15T15:24:21;100169.50;;;-9.18;90.84